»·PEaware :: UAL576 KSFO-KLAS

UAL576 :: KSFO-KLAS

FLIGHT INFORMATION

Flight Status: Arrived
Operator:
United Airlines
More flights by this operator :: More flights under this callsign
Pilot: Anonymous 8274 (8274)
Aircraft: BOEING 737-200
(B732)
More flights by this aircraft type
Origin: KSFO San Francisco Intl
United States
Destination: KLAS McCarran Intl
United States
More flights between these airports :: More routes between these airports
Route: SFO4 OAK J84 BABIT J92 BTY FUZZY8
File this flight plan on PilotEdge
Remarks:
Altitude:
(Current/Filed)
27,000ft
Speed:
(Current/Filed)
460kts
Departed: 30-Dec-17 10:22 PM
Arrived: 30-Dec-17 11:34 PM
Distance/Time
Traveled:
359nm/1:12
Distance/Time
To Go:
Arrived

Flight Plot

Page will automatically refresh every two minutes.

Flight plan parsing failed; only flown route is shown


Map Options




Map Legend


Flown Route
Filed Route
Departure Airport
Arrival Airport
Navaid (VOR, NDB)
Fix

Horizontal Profiles

Position Reports

Time Latitude Longitude Heading Altitude Ground
Speed
30-Dec-17 22:10 37.610138 -122.388128 219 21ft 0kts
30-Dec-17 22:11 37.610138 -122.388128 219 21ft 0kts
30-Dec-17 22:12 37.610138 -122.388128 219 21ft 0kts
30-Dec-17 22:13 37.610138 -122.388128 219 21ft 0kts
30-Dec-17 22:14 37.610138 -122.388128 219 21ft 0kts
30-Dec-17 22:15 37.610138 -122.388129 219 21ft 0kts
30-Dec-17 22:16 37.610138 -122.388129 219 21ft 0kts
30-Dec-17 22:17 37.610138 -122.388129 219 21ft 0kts
30-Dec-17 22:18 37.610138 -122.388129 219 21ft 0kts
30-Dec-17 22:19 37.610138 -122.388128 219 21ft 0kts
30-Dec-17 22:20 37.610360 -122.387738 72 21ft 3kts
30-Dec-17 22:21 37.610253 -122.385938 107 21ft 9kts
30-Dec-17 22:22 37.610075 -122.385441 118 21ft 0kts
30-Dec-17 22:23 37.610075 -122.385441 118 21ft 0kts
30-Dec-17 22:24 37.609394 -122.383985 123 21ft 12kts
30-Dec-17 22:25 37.609151 -122.383518 123 21ft 0kts
30-Dec-17 22:26 37.609151 -122.383518 123 21ft 0kts
30-Dec-17 22:27 37.609064 -122.382154 26 21ft 9kts
30-Dec-17 22:28 37.621976 -122.373556 27 350ft 142kts
30-Dec-17 22:29 37.652865 -122.336781 46 2506ft 197kts
30-Dec-17 22:30 37.696080 -122.279211 46 4999ft 264kts
30-Dec-17 22:31 37.734879 -122.202194 78 8160ft 284kts
30-Dec-17 22:32 37.760486 -122.103295 70 10788ft 320kts
30-Dec-17 22:33 37.788004 -121.994045 74 13161ft 347kts
30-Dec-17 22:34 37.815022 -121.879850 72 15558ft 361kts
30-Dec-17 22:35 37.853925 -121.760432 67 17741ft 376kts
30-Dec-17 22:36 37.892023 -121.635256 72 19704ft 388kts
30-Dec-17 22:37 37.923216 -121.502669 74 21423ft 399kts
30-Dec-17 22:38 37.954711 -121.366072 74 22946ft 410kts
30-Dec-17 22:39 37.990871 -121.236929 51 24153ft 419kts
30-Dec-17 22:40 38.050255 -121.112501 77 25282ft 427kts
30-Dec-17 22:41 38.081739 -120.967918 72 26264ft 437kts
30-Dec-17 22:42 38.114297 -120.819623 74 27099ft 447kts
30-Dec-17 22:43 38.140806 -120.675701 77 27110ft 471kts
30-Dec-17 22:44 38.169447 -120.510920 77 27128ft 479kts
30-Dec-17 22:45 38.197616 -120.348344 78 27132ft 479kts
30-Dec-17 22:46 38.226188 -120.183625 78 27127ft 480kts
30-Dec-17 22:47 38.252845 -120.029737 78 27128ft 481kts
30-Dec-17 22:48 38.281385 -119.864645 77 27129ft 482kts
30-Dec-17 22:49 38.310010 -119.699314 77 27130ft 482kts
30-Dec-17 22:50 38.338886 -119.532832 77 27131ft 483kts
30-Dec-17 22:51 38.367912 -119.365781 77 27132ft 484kts
30-Dec-17 22:52 38.396485 -119.202020 77 27127ft 484kts
30-Dec-17 22:53 38.425758 -119.034640 77 27129ft 484kts
30-Dec-17 22:54 38.455105 -118.867134 77 27130ft 484kts
30-Dec-17 22:55 38.478713 -118.700306 81 27131ft 484kts
30-Dec-17 22:56 38.497434 -118.531663 84 27157ft 484kts
30-Dec-17 22:57 38.513482 -118.361871 81 27160ft 485kts
30-Dec-17 22:58 38.472426 -118.213859 131 27166ft 471kts
30-Dec-17 22:59 38.388173 -118.087863 142 27207ft 466kts
30-Dec-17 23:00 38.286622 -117.987040 150 27214ft 461kts
30-Dec-17 23:01 38.179139 -117.898340 150 27210ft 461kts
30-Dec-17 23:02 38.075122 -117.804385 144 27210ft 462kts
30-Dec-17 23:03 37.975320 -117.702234 144 27211ft 461kts
30-Dec-17 23:04 37.881419 -117.606214 145 27212ft 460kts
30-Dec-17 23:05 37.781924 -117.514111 147 27213ft 459kts
30-Dec-17 23:06 37.677252 -117.423609 151 27215ft 457kts
30-Dec-17 23:07 37.570240 -117.346897 157 27214ft 452kts
30-Dec-17 23:08 37.460389 -117.278349 157 27209ft 445kts
30-Dec-17 23:09 37.349478 -117.207123 152 27211ft 452kts
30-Dec-17 23:10 37.245314 -117.117996 146 27209ft 458kts
30-Dec-17 23:11 37.144519 -117.021345 146 27209ft 461kts
30-Dec-17 23:12 37.042715 -116.925920 149 27158ft 461kts
30-Dec-17 23:13 36.934404 -116.844386 155 27153ft 454kts
30-Dec-17 23:14 36.832825 -116.775233 145 27148ft 456kts
30-Dec-17 23:15 36.754166 -116.652700 129 26624ft 444kts
30-Dec-17 23:16 36.676117 -116.539518 142 24164ft 421kts
30-Dec-17 23:17 36.589493 -116.446836 134 21769ft 406kts
30-Dec-17 23:18 36.524572 -116.349691 132 21150ft 364kts
30-Dec-17 23:19 36.461526 -116.254073 132 21165ft 375kts
30-Dec-17 23:20 36.394418 -116.153033 132 19724ft 384kts
30-Dec-17 23:21 36.328825 -116.056540 133 17606ft 370kts
30-Dec-17 23:22 36.263403 -115.966211 135 15992ft 344kts
30-Dec-17 23:23 36.205702 -115.889109 133 15991ft 309kts
30-Dec-17 23:24 36.172729 -115.789570 111 15993ft 315kts
30-Dec-17 23:25 36.143745 -115.687200 111 14981ft 324kts
30-Dec-17 23:26 36.116939 -115.594502 111 12420ft 308kts
30-Dec-17 23:27 36.087822 -115.498368 111 10982ft 284kts
30-Dec-17 23:28 36.060728 -115.409846 111 10994ft 277kts
30-Dec-17 23:29 36.034899 -115.322355 111 10933ft 275kts
30-Dec-17 23:30 36.024279 -115.229852 91 9608ft 276kts
30-Dec-17 23:31 36.018621 -115.136997 96 8392ft 257kts
30-Dec-17 23:32 36.010615 -115.054862 98 6971ft 238kts
30-Dec-17 23:33 36.004550 -114.976410 95 5476ft 224kts
30-Dec-17 23:34 36.042161 -114.937995 354 4590ft 198kts
30-Dec-17 23:35 36.076552 -114.971705 269 3661ft 162kts
30-Dec-17 23:36 36.073648 -115.023169 269 3634ft 147kts
30-Dec-17 23:37 36.073754 -115.073431 268 2989ft 143kts
30-Dec-17 23:38 36.073660 -115.121400 269 2228ft 133kts
30-Dec-17 23:39 36.074818 -115.150784 313 2120ft 43kts
30-Dec-17 23:40 36.077954 -115.149219 96 2120ft 17kts
30-Dec-17 23:41 36.077492 -115.143023 90 2120ft 17kts
30-Dec-17 23:42 36.079484 -115.139495 358 2120ft 6kts
30-Dec-17 23:43 36.079880 -115.139537 355 2120ft 0kts
30-Dec-17 23:44 36.018064 -115.129953 96 8378ft 250kts
30-Dec-17 23:45 36.009927 -115.048409 97 6846ft 236kts
30-Dec-17 23:46 36.004159 -114.970977 92 5365ft 223kts
30-Dec-17 23:47 36.044788 -114.938287 354 4575ft 195kts
30-Dec-17 23:48 36.076501 -114.974600 267 3660ft 160kts
30-Dec-17 23:49 36.073596 -115.025724 269 3630ft 147kts
30-Dec-17 23:50 36.073732 -115.075967 268 2955ft 143kts
30-Dec-17 23:51 36.073662 -115.123722 269 2195ft 133kts
30-Dec-17 23:52 36.073635 -115.139533 269 2120ft 103kts
30-Dec-17 23:53 36.073635 -115.143141 270 2120ft 86kts
30-Dec-17 23:54 36.073642 -115.102234 269 2551ft 138kts
30-Dec-17 23:55 36.073637 -115.144569 269 2120ft 59kts

Navigation Log

Ident Type
Flight plan parsing failed, navigation log unavailable